sensor_id;sensor_type;location;lat;lon;timestamp;P1;durP1;ratioP1;P2;durP2;ratioP2
79074;SDS011;68476;42.710;23.388;2023-11-22T00:00:10;64.95;;;35.40;;
79074;SDS011;68476;42.710;23.388;2023-11-22T00:02:36;62.67;;;35.83;;
79074;SDS011;68476;42.710;23.388;2023-11-22T00:05:01;60.70;;;36.20;;
79074;SDS011;68476;42.710;23.388;2023-11-22T00:07:26;68.80;;;38.40;;
79074;SDS011;68476;42.710;23.388;2023-11-22T00:09:55;72.13;;;40.35;;
79074;SDS011;68476;42.710;23.388;2023-11-22T00:12:20;72.13;;;40.47;;
79074;SDS011;68476;42.710;23.388;2023-11-22T00:14:45;69.60;;;41.60;;
79074;SDS011;68476;42.710;23.388;2023-11-22T00:17:12;72.68;;;42.50;;
79074;SDS011;68476;42.710;23.388;2023-11-22T00:19:37;79.38;;;46.40;;
79074;SDS011;68476;42.710;23.388;2023-11-22T00:22:03;80.13;;;45.60;;
79074;SDS011;68476;42.710;23.388;2023-11-22T00:24:36;74.95;;;44.67;;
79074;SDS011;68476;42.710;23.388;2023-11-22T00:27:02;72.72;;;43.40;;
79074;SDS011;68476;42.710;23.388;2023-11-22T00:29:27;63.08;;;36.88;;
79074;SDS011;68476;42.710;23.388;2023-11-22T00:31:52;67.43;;;40.70;;
79074;SDS011;68476;42.710;23.388;2023-11-22T00:34:17;72.97;;;41.47;;
79074;SDS011;68476;42.710;23.388;2023-11-22T00:36:43;74.80;;;44.83;;
79074;SDS011;68476;42.710;23.388;2023-11-22T00:39:08;70.20;;;42.47;;
79074;SDS011;68476;42.710;23.388;2023-11-22T00:41:38;74.10;;;42.05;;
79074;SDS011;68476;42.710;23.388;2023-11-22T00:44:03;62.15;;;36.17;;
79074;SDS011;68476;42.710;23.388;2023-11-22T00:46:29;59.05;;;32.95;;
79074;SDS011;68476;42.710;23.388;2023-11-22T00:48:54;55.03;;;32.92;;
79074;SDS011;68476;42.710;23.388;2023-11-22T00:51:21;59.25;;;34.15;;
79074;SDS011;68476;42.710;23.388;2023-11-22T00:53:47;60.05;;;34.00;;
79074;SDS011;68476;42.710;23.388;2023-11-22T00:56:12;56.22;;;32.92;;
79074;SDS011;68476;42.710;23.388;2023-11-22T00:58:38;58.83;;;32.22;;
79074;SDS011;68476;42.710;23.388;2023-11-22T01:01:03;50.50;;;30.67;;
79074;SDS011;68476;42.710;23.388;2023-11-22T01:03:28;48.60;;;26.83;;
79074;SDS011;68476;42.710;23.388;2023-11-22T01:05:53;42.58;;;24.73;;
79074;SDS011;68476;42.710;23.388;2023-11-22T01:08:19;44.55;;;26.55;;
79074;SDS011;68476;42.710;23.388;2023-11-22T01:10:44;44.20;;;25.60;;
79074;SDS011;68476;42.710;23.388;2023-11-22T01:13:11;42.58;;;26.92;;
79074;SDS011;68476;42.710;23.388;2023-11-22T01:15:36;47.63;;;27.02;;
79074;SDS011;68476;42.710;23.388;2023-11-22T01:18:01;50.50;;;26.90;;
79074;SDS011;68476;42.710;23.388;2023-11-22T01:20:26;44.38;;;25.08;;
79074;SDS011;68476;42.710;23.388;2023-11-22T01:22:52;41.42;;;25.10;;
79074;SDS011;68476;42.710;23.388;2023-11-22T01:25:17;45.65;;;27.63;;
79074;SDS011;68476;42.710;23.388;2023-11-22T01:27:42;50.50;;;29.42;;
79074;SDS011;68476;42.710;23.388;2023-11-22T01:30:08;52.95;;;30.48;;
79074;SDS011;68476;42.710;23.388;2023-11-22T01:32:33;50.70;;;29.13;;
79074;SDS011;68476;42.710;23.388;2023-11-22T01:35:00;50.60;;;29.48;;
79074;SDS011;68476;42.710;23.388;2023-11-22T01:37:25;47.40;;;26.25;;
79074;SDS011;68476;42.710;23.388;2023-11-22T01:39:50;49.42;;;28.77;;
79074;SDS011;68476;42.710;23.388;2023-11-22T01:42:16;47.75;;;27.80;;
79074;SDS011;68476;42.710;23.388;2023-11-22T01:44:41;45.67;;;27.58;;
79074;SDS011;68476;42.710;23.388;2023-11-22T01:47:06;53.92;;;29.45;;
79074;SDS011;68476;42.710;23.388;2023-11-22T01:49:32;47.17;;;27.48;;
79074;SDS011;68476;42.710;23.388;2023-11-22T01:51:57;50.90;;;29.23;;
79074;SDS011;68476;42.710;23.388;2023-11-22T01:54:23;46.63;;;27.48;;
79074;SDS011;68476;42.710;23.388;2023-11-22T01:56:49;42.80;;;26.65;;
79074;SDS011;68476;42.710;23.388;2023-11-22T01:59:15;42.10;;;26.85;;
79074;SDS011;68476;42.710;23.388;2023-11-22T02:01:40;42.67;;;27.10;;
79074;SDS011;68476;42.710;23.388;2023-11-22T02:04:06;46.38;;;28.20;;
79074;SDS011;68476;42.710;23.388;2023-11-22T02:06:32;43.05;;;27.40;;
79074;SDS011;68476;42.710;23.388;2023-11-22T02:08:58;47.83;;;27.17;;
79074;SDS011;68476;42.710;23.388;2023-11-22T02:11:23;37.58;;;23.92;;
79074;SDS011;68476;42.710;23.388;2023-11-22T02:13:49;38.28;;;24.80;;
79074;SDS011;68476;42.710;23.388;2023-11-22T02:16:15;36.65;;;22.08;;
79074;SDS011;68476;42.710;23.388;2023-11-22T02:18:42;36.85;;;22.33;;
79074;SDS011;68476;42.710;23.388;2023-11-22T02:21:08;33.58;;;21.38;;
79074;SDS011;68476;42.710;23.388;2023-11-22T02:23:33;37.00;;;22.88;;
79074;SDS011;68476;42.710;23.388;2023-11-22T02:25:58;37.63;;;23.95;;
79074;SDS011;68476;42.710;23.388;2023-11-22T02:28:24;34.97;;;21.13;;
79074;SDS011;68476;42.710;23.388;2023-11-22T02:30:49;34.20;;;21.33;;
79074;SDS011;68476;42.710;23.388;2023-11-22T02:33:14;33.00;;;20.98;;
79074;SDS011;68476;42.710;23.388;2023-11-22T02:35:39;30.77;;;20.83;;
79074;SDS011;68476;42.710;23.388;2023-11-22T02:38:06;29.15;;;20.77;;
79074;SDS011;68476;42.710;23.388;2023-11-22T02:40:31;33.58;;;23.55;;
79074;SDS011;68476;42.710;23.388;2023-11-22T02:42:56;31.38;;;20.63;;
79074;SDS011;68476;42.710;23.388;2023-11-22T02:45:30;33.10;;;21.43;;
79074;SDS011;68476;42.710;23.388;2023-11-22T02:47:56;32.75;;;20.75;;
79074;SDS011;68476;42.710;23.388;2023-11-22T02:50:21;32.30;;;20.77;;
79074;SDS011;68476;42.710;23.388;2023-11-22T02:52:47;31.83;;;20.52;;
79074;SDS011;68476;42.710;23.388;2023-11-22T02:55:12;29.38;;;20.10;;
79074;SDS011;68476;42.710;23.388;2023-11-22T02:57:37;30.30;;;18.60;;
79074;SDS011;68476;42.710;23.388;2023-11-22T03:00:09;31.33;;;20.50;;
79074;SDS011;68476;42.710;23.388;2023-11-22T03:02:38;32.40;;;20.08;;
79074;SDS011;68476;42.710;23.388;2023-11-22T03:05:03;25.98;;;17.23;;
79074;SDS011;68476;42.710;23.388;2023-11-22T03:07:29;28.15;;;17.77;;
79074;SDS011;68476;42.710;23.388;2023-11-22T03:09:54;30.17;;;17.40;;
79074;SDS011;68476;42.710;23.388;2023-11-22T03:12:20;26.23;;;15.93;;
79074;SDS011;68476;42.710;23.388;2023-11-22T03:14:46;25.92;;;16.67;;
79074;SDS011;68476;42.710;23.388;2023-11-22T03:17:11;24.60;;;16.30;;
79074;SDS011;68476;42.710;23.388;2023-11-22T03:19:38;24.63;;;16.92;;
79074;SDS011;68476;42.710;23.388;2023-11-22T03:22:03;31.40;;;18.13;;
79074;SDS011;68476;42.710;23.388;2023-11-22T03:24:29;26.58;;;17.02;;
79074;SDS011;68476;42.710;23.388;2023-11-22T03:26:55;30.42;;;19.38;;
79074;SDS011;68476;42.710;23.388;2023-11-22T03:29:23;33.63;;;22.08;;
79074;SDS011;68476;42.710;23.388;2023-11-22T03:31:49;28.40;;;18.20;;
79074;SDS011;68476;42.710;23.388;2023-11-22T03:34:14;25.38;;;16.88;;
79074;SDS011;68476;42.710;23.388;2023-11-22T03:36:40;24.73;;;17.00;;
79074;SDS011;68476;42.710;23.388;2023-11-22T03:39:05;24.90;;;17.13;;
79074;SDS011;68476;42.710;23.388;2023-11-22T03:41:31;28.33;;;17.80;;
79074;SDS011;68476;42.710;23.388;2023-11-22T03:43:56;28.48;;;19.25;;
79074;SDS011;68476;42.710;23.388;2023-11-22T03:46:21;29.27;;;18.60;;
79074;SDS011;68476;42.710;23.388;2023-11-22T03:48:46;33.87;;;18.87;;
79074;SDS011;68476;42.710;23.388;2023-11-22T03:51:12;28.60;;;19.30;;
79074;SDS011;68476;42.710;23.388;2023-11-22T03:53:37;30.98;;;20.00;;
79074;SDS011;68476;42.710;23.388;2023-11-22T03:56:02;32.80;;;21.33;;
79074;SDS011;68476;42.710;23.388;2023-11-22T03:58:28;32.13;;;19.88;;
79074;SDS011;68476;42.710;23.388;2023-11-22T04:00:53;35.30;;;21.17;;
79074;SDS011;68476;42.710;23.388;2023-11-22T04:03:18;36.90;;;21.20;;
79074;SDS011;68476;42.710;23.388;2023-11-22T04:05:44;31.02;;;21.25;;
79074;SDS011;68476;42.710;23.388;2023-11-22T04:08:09;30.08;;;19.92;;
79074;SDS011;68476;42.710;23.388;2023-11-22T04:10:34;29.77;;;18.80;;
79074;SDS011;68476;42.710;23.388;2023-11-22T04:13:00;31.63;;;18.92;;
79074;SDS011;68476;42.710;23.388;2023-11-22T04:15:25;30.58;;;19.13;;
79074;SDS011;68476;42.710;23.388;2023-11-22T04:17:52;25.20;;;15.00;;
79074;SDS011;68476;42.710;23.388;2023-11-22T04:20:19;22.58;;;15.95;;
79074;SDS011;68476;42.710;23.388;2023-11-22T04:22:45;15.55;;;11.57;;
79074;SDS011;68476;42.710;23.388;2023-11-22T04:25:10;16.85;;;11.15;;
79074;SDS011;68476;42.710;23.388;2023-11-22T04:27:38;15.40;;;10.52;;
79074;SDS011;68476;42.710;23.388;2023-11-22T04:30:03;15.07;;;10.27;;
79074;SDS011;68476;42.710;23.388;2023-11-22T04:32:29;15.30;;;10.10;;
79074;SDS011;68476;42.710;23.388;2023-11-22T04:34:54;16.03;;;11.17;;
79074;SDS011;68476;42.710;23.388;2023-11-22T04:37:19;16.30;;;11.45;;
79074;SDS011;68476;42.710;23.388;2023-11-22T04:39:47;21.10;;;12.98;;
79074;SDS011;68476;42.710;23.388;2023-11-22T04:42:17;16.45;;;11.88;;
79074;SDS011;68476;42.710;23.388;2023-11-22T04:44:42;19.73;;;14.13;;
79074;SDS011;68476;42.710;23.388;2023-11-22T04:47:07;19.23;;;13.07;;
79074;SDS011;68476;42.710;23.388;2023-11-22T04:49:33;17.75;;;11.65;;
79074;SDS011;68476;42.710;23.388;2023-11-22T04:51:58;18.83;;;11.75;;
79074;SDS011;68476;42.710;23.388;2023-11-22T04:54:23;15.15;;;10.35;;
79074;SDS011;68476;42.710;23.388;2023-11-22T04:56:49;15.87;;;10.83;;
79074;SDS011;68476;42.710;23.388;2023-11-22T04:59:15;14.82;;;10.70;;
79074;SDS011;68476;42.710;23.388;2023-11-22T05:01:40;11.50;;;8.40;;
79074;SDS011;68476;42.710;23.388;2023-11-22T05:04:06;17.55;;;11.63;;
79074;SDS011;68476;42.710;23.388;2023-11-22T05:06:31;18.40;;;11.88;;
79074;SDS011;68476;42.710;23.388;2023-11-22T05:08:56;21.48;;;13.32;;
79074;SDS011;68476;42.710;23.388;2023-11-22T05:11:22;21.52;;;13.43;;
79074;SDS011;68476;42.710;23.388;2023-11-22T05:13:47;20.33;;;14.75;;
79074;SDS011;68476;42.710;23.388;2023-11-22T05:16:12;23.73;;;15.15;;
79074;SDS011;68476;42.710;23.388;2023-11-22T05:18:38;19.88;;;13.30;;
79074;SDS011;68476;42.710;23.388;2023-11-22T05:21:03;19.70;;;12.65;;
79074;SDS011;68476;42.710;23.388;2023-11-22T05:23:29;17.95;;;11.38;;
79074;SDS011;68476;42.710;23.388;2023-11-22T05:25:54;18.33;;;10.85;;
79074;SDS011;68476;42.710;23.388;2023-11-22T05:28:19;16.42;;;10.98;;
79074;SDS011;68476;42.710;23.388;2023-11-22T05:30:45;16.70;;;11.03;;
79074;SDS011;68476;42.710;23.388;2023-11-22T05:33:10;16.52;;;11.77;;
79074;SDS011;68476;42.710;23.388;2023-11-22T05:35:35;17.53;;;11.00;;
79074;SDS011;68476;42.710;23.388;2023-11-22T05:38:00;18.92;;;12.73;;
79074;SDS011;68476;42.710;23.388;2023-11-22T05:40:27;20.05;;;12.32;;
79074;SDS011;68476;42.710;23.388;2023-11-22T05:42:52;18.67;;;13.30;;
79074;SDS011;68476;42.710;23.388;2023-11-22T05:45:17;19.00;;;13.05;;
79074;SDS011;68476;42.710;23.388;2023-11-22T05:47:42;24.40;;;16.27;;
79074;SDS011;68476;42.710;23.388;2023-11-22T05:50:08;24.25;;;17.05;;
79074;SDS011;68476;42.710;23.388;2023-11-22T05:52:34;23.83;;;18.50;;
79074;SDS011;68476;42.710;23.388;2023-11-22T05:54:59;28.15;;;17.58;;
79074;SDS011;68476;42.710;23.388;2023-11-22T05:57:28;26.20;;;17.25;;
79074;SDS011;68476;42.710;23.388;2023-11-22T05:59:53;26.55;;;18.20;;
79074;SDS011;68476;42.710;23.388;2023-11-22T06:02:19;24.75;;;15.18;;
79074;SDS011;68476;42.710;23.388;2023-11-22T06:04:44;24.55;;;16.25;;
79074;SDS011;68476;42.710;23.388;2023-11-22T06:07:09;25.13;;;16.08;;
79074;SDS011;68476;42.710;23.388;2023-11-22T06:09:35;22.02;;;15.00;;
79074;SDS011;68476;42.710;23.388;2023-11-22T06:12:01;21.75;;;14.27;;
79074;SDS011;68476;42.710;23.388;2023-11-22T06:14:26;21.98;;;16.25;;
79074;SDS011;68476;42.710;23.388;2023-11-22T06:16:51;27.07;;;18.63;;
79074;SDS011;68476;42.710;23.388;2023-11-22T06:19:17;26.20;;;16.40;;
79074;SDS011;68476;42.710;23.388;2023-11-22T06:21:42;26.30;;;17.15;;
79074;SDS011;68476;42.710;23.388;2023-11-22T06:24:07;26.08;;;16.23;;
79074;SDS011;68476;42.710;23.388;2023-11-22T06:26:34;29.60;;;16.35;;
79074;SDS011;68476;42.710;23.388;2023-11-22T06:28:59;23.83;;;15.73;;
79074;SDS011;68476;42.710;23.388;2023-11-22T06:31:25;27.63;;;16.33;;
79074;SDS011;68476;42.710;23.388;2023-11-22T06:33:50;24.38;;;17.40;;
79074;SDS011;68476;42.710;23.388;2023-11-22T06:36:17;24.55;;;16.38;;
79074;SDS011;68476;42.710;23.388;2023-11-22T06:38:43;24.63;;;15.65;;
79074;SDS011;68476;42.710;23.388;2023-11-22T06:41:08;24.50;;;16.70;;
79074;SDS011;68476;42.710;23.388;2023-11-22T06:43:34;26.05;;;18.20;;
79074;SDS011;68476;42.710;23.388;2023-11-22T06:45:59;23.40;;;15.77;;
79074;SDS011;68476;42.710;23.388;2023-11-22T06:48:27;26.65;;;16.77;;
79074;SDS011;68476;42.710;23.388;2023-11-22T06:50:52;24.15;;;16.15;;
79074;SDS011;68476;42.710;23.388;2023-11-22T06:53:18;26.17;;;17.42;;
79074;SDS011;68476;42.710;23.388;2023-11-22T06:55:45;26.20;;;15.75;;
79074;SDS011;68476;42.710;23.388;2023-11-22T06:58:11;22.50;;;15.15;;
79074;SDS011;68476;42.710;23.388;2023-11-22T07:00:36;21.00;;;13.38;;
79074;SDS011;68476;42.710;23.388;2023-11-22T07:03:01;24.45;;;14.82;;
79074;SDS011;68476;42.710;23.388;2023-11-22T07:05:27;22.17;;;15.27;;
79074;SDS011;68476;42.710;23.388;2023-11-22T07:07:54;23.90;;;15.57;;
79074;SDS011;68476;42.710;23.388;2023-11-22T07:10:20;24.58;;;15.85;;
79074;SDS011;68476;42.710;23.388;2023-11-22T07:12:46;30.67;;;16.45;;
79074;SDS011;68476;42.710;23.388;2023-11-22T07:15:12;30.15;;;16.73;;
79074;SDS011;68476;42.710;23.388;2023-11-22T07:17:38;33.92;;;15.77;;
79074;SDS011;68476;42.710;23.388;2023-11-22T07:20:04;27.90;;;17.38;;
79074;SDS011;68476;42.710;23.388;2023-11-22T07:22:34;30.10;;;16.35;;
79074;SDS011;68476;42.710;23.388;2023-11-22T07:24:59;28.42;;;17.77;;
79074;SDS011;68476;42.710;23.388;2023-11-22T07:27:27;34.70;;;17.75;;
79074;SDS011;68476;42.710;23.388;2023-11-22T07:29:52;28.80;;;18.15;;
79074;SDS011;68476;42.710;23.388;2023-11-22T07:32:17;36.20;;;19.52;;
79074;SDS011;68476;42.710;23.388;2023-11-22T07:34:45;31.92;;;20.45;;
79074;SDS011;68476;42.710;23.388;2023-11-22T07:37:10;29.38;;;19.58;;
79074;SDS011;68476;42.710;23.388;2023-11-22T07:39:37;28.52;;;17.27;;
79074;SDS011;68476;42.710;23.388;2023-11-22T07:42:03;27.98;;;16.23;;
79074;SDS011;68476;42.710;23.388;2023-11-22T07:44:29;28.23;;;15.77;;
79074;SDS011;68476;42.710;23.388;2023-11-22T07:46:57;28.60;;;16.23;;
79074;SDS011;68476;42.710;23.388;2023-11-22T07:49:24;33.08;;;18.65;;
79074;SDS011;68476;42.710;23.388;2023-11-22T07:51:50;39.38;;;25.90;;
79074;SDS011;68476;42.710;23.388;2023-11-22T07:54:18;50.83;;;32.20;;
79074;SDS011;68476;42.710;23.388;2023-11-22T07:56:43;45.47;;;30.13;;
79074;SDS011;68476;42.710;23.388;2023-11-22T07:59:09;34.65;;;21.17;;
79074;SDS011;68476;42.710;23.388;2023-11-22T08:01:36;27.30;;;17.50;;
79074;SDS011;68476;42.710;23.388;2023-11-22T08:04:01;29.42;;;18.77;;
79074;SDS011;68476;42.710;23.388;2023-11-22T08:06:27;37.05;;;22.83;;
79074;SDS011;68476;42.710;23.388;2023-11-22T08:08:53;28.73;;;18.65;;
79074;SDS011;68476;42.710;23.388;2023-11-22T08:11:18;29.48;;;19.65;;
79074;SDS011;68476;42.710;23.388;2023-11-22T08:13:44;27.20;;;18.02;;
79074;SDS011;68476;42.710;23.388;2023-11-22T08:16:10;24.20;;;15.68;;
79074;SDS011;68476;42.710;23.388;2023-11-22T08:18:35;26.08;;;16.65;;
79074;SDS011;68476;42.710;23.388;2023-11-22T08:21:00;28.73;;;18.60;;
79074;SDS011;68476;42.710;23.388;2023-11-22T08:23:26;29.93;;;21.23;;
79074;SDS011;68476;42.710;23.388;2023-11-22T08:25:52;30.20;;;20.15;;
79074;SDS011;68476;42.710;23.388;2023-11-22T08:28:18;27.27;;;16.95;;
79074;SDS011;68476;42.710;23.388;2023-11-22T08:30:46;26.30;;;16.85;;
79074;SDS011;68476;42.710;23.388;2023-11-22T08:33:11;18.83;;;12.40;;
79074;SDS011;68476;42.710;23.388;2023-11-22T08:35:36;19.83;;;13.18;;
79074;SDS011;68476;42.710;23.388;2023-11-22T08:38:02;20.52;;;13.00;;
79074;SDS011;68476;42.710;23.388;2023-11-22T08:40:28;16.50;;;10.77;;
79074;SDS011;68476;42.710;23.388;2023-11-22T08:42:53;18.23;;;11.38;;
79074;SDS011;68476;42.710;23.388;2023-11-22T08:45:19;17.33;;;12.05;;
79074;SDS011;68476;42.710;23.388;2023-11-22T08:47:44;17.88;;;11.45;;
79074;SDS011;68476;42.710;23.388;2023-11-22T08:50:11;18.23;;;12.45;;
79074;SDS011;68476;42.710;23.388;2023-11-22T08:52:36;17.17;;;11.63;;
79074;SDS011;68476;42.710;23.388;2023-11-22T08:55:03;16.40;;;12.13;;
79074;SDS011;68476;42.710;23.388;2023-11-22T08:57:29;16.90;;;11.65;;
79074;SDS011;68476;42.710;23.388;2023-11-22T08:59:55;19.98;;;12.07;;
79074;SDS011;68476;42.710;23.388;2023-11-22T09:02:21;16.13;;;11.63;;
79074;SDS011;68476;42.710;23.388;2023-11-22T09:04:47;19.17;;;12.05;;
79074;SDS011;68476;42.710;23.388;2023-11-22T09:07:13;15.55;;;11.02;;
79074;SDS011;68476;42.710;23.388;2023-11-22T09:09:39;14.00;;;10.57;;
79074;SDS011;68476;42.710;23.388;2023-11-22T09:12:06;16.27;;;12.48;;
79074;SDS011;68476;42.710;23.388;2023-11-22T09:14:37;16.45;;;10.63;;
79074;SDS011;68476;42.710;23.388;2023-11-22T09:17:02;16.45;;;10.57;;
79074;SDS011;68476;42.710;23.388;2023-11-22T09:19:30;16.42;;;10.85;;
79074;SDS011;68476;42.710;23.388;2023-11-22T09:21:55;18.30;;;11.35;;
79074;SDS011;68476;42.710;23.388;2023-11-22T09:24:21;15.30;;;10.07;;
79074;SDS011;68476;42.710;23.388;2023-11-22T09:26:46;16.58;;;10.65;;
79074;SDS011;68476;42.710;23.388;2023-11-22T09:29:11;16.42;;;10.52;;
79074;SDS011;68476;42.710;23.388;2023-11-22T09:31:39;15.48;;;10.65;;
79074;SDS011;68476;42.710;23.388;2023-11-22T09:34:04;16.02;;;10.88;;
79074;SDS011;68476;42.710;23.388;2023-11-22T09:36:30;17.95;;;11.05;;
79074;SDS011;68476;42.710;23.388;2023-11-22T09:38:57;17.20;;;11.43;;
79074;SDS011;68476;42.710;23.388;2023-11-22T09:41:22;18.52;;;11.52;;
79074;SDS011;68476;42.710;23.388;2023-11-22T09:43:50;16.90;;;11.50;;
79074;SDS011;68476;42.710;23.388;2023-11-22T09:46:15;17.88;;;11.65;;
79074;SDS011;68476;42.710;23.388;2023-11-22T09:51:29;17.77;;;11.77;;
79074;SDS011;68476;42.710;23.388;2023-11-22T09:56:29;19.10;;;12.57;;
79074;SDS011;68476;42.710;23.388;2023-11-22T09:58:56;19.35;;;12.57;;
79074;SDS011;68476;42.710;23.388;2023-11-22T10:01:22;19.17;;;11.80;;
79074;SDS011;68476;42.710;23.388;2023-11-22T10:03:48;15.73;;;11.25;;
79074;SDS011;68476;42.710;23.388;2023-11-22T10:06:13;18.88;;;12.05;;
79074;SDS011;68476;42.710;23.388;2023-11-22T10:08:40;18.35;;;11.20;;
79074;SDS011;68476;42.710;23.388;2023-11-22T10:11:06;15.43;;;11.00;;
79074;SDS011;68476;42.710;23.388;2023-11-22T10:13:32;17.23;;;11.70;;
79074;SDS011;68476;42.710;23.388;2023-11-22T10:15:59;19.02;;;12.70;;
79074;SDS011;68476;42.710;23.388;2023-11-22T10:18:33;18.40;;;12.13;;
79074;SDS011;68476;42.710;23.388;2023-11-22T10:20:59;19.08;;;13.32;;
79074;SDS011;68476;42.710;23.388;2023-11-22T10:23:28;16.25;;;11.70;;
79074;SDS011;68476;42.710;23.388;2023-11-22T10:25:54;18.10;;;12.75;;
79074;SDS011;68476;42.710;23.388;2023-11-22T10:28:21;17.65;;;12.30;;
79074;SDS011;68476;42.710;23.388;2023-11-22T10:30:47;21.45;;;13.90;;
79074;SDS011;68476;42.710;23.388;2023-11-22T10:33:13;18.00;;;12.45;;
79074;SDS011;68476;42.710;23.388;2023-11-22T10:35:48;18.33;;;12.63;;
79074;SDS011;68476;42.710;23.388;2023-11-22T10:40:39;18.30;;;12.77;;
79074;SDS011;68476;42.710;23.388;2023-11-22T10:43:06;19.33;;;14.15;;
79074;SDS011;68476;42.710;23.388;2023-11-22T10:45:33;20.33;;;13.90;;
79074;SDS011;68476;42.710;23.388;2023-11-22T10:48:00;22.23;;;14.38;;
79074;SDS011;68476;42.710;23.388;2023-11-22T10:50:25;22.95;;;15.48;;
79074;SDS011;68476;42.710;23.388;2023-11-22T10:52:51;23.63;;;15.68;;
79074;SDS011;68476;42.710;23.388;2023-11-22T10:55:21;23.17;;;15.90;;
79074;SDS011;68476;42.710;23.388;2023-11-22T10:57:47;24.90;;;17.20;;
79074;SDS011;68476;42.710;23.388;2023-11-22T11:00:16;23.27;;;16.98;;
79074;SDS011;68476;42.710;23.388;2023-11-22T11:02:44;23.80;;;17.52;;
79074;SDS011;68476;42.710;23.388;2023-11-22T11:05:18;26.50;;;17.23;;
79074;SDS011;68476;42.710;23.388;2023-11-22T11:07:55;28.13;;;19.77;;
79074;SDS011;68476;42.710;23.388;2023-11-22T11:10:22;30.98;;;20.52;;
79074;SDS011;68476;42.710;23.388;2023-11-22T11:12:47;27.67;;;17.83;;
79074;SDS011;68476;42.710;23.388;2023-11-22T11:15:13;24.73;;;16.90;;
79074;SDS011;68476;42.710;23.388;2023-11-22T11:17:39;28.27;;;18.40;;
79074;SDS011;68476;42.710;23.388;2023-11-22T11:20:05;28.13;;;18.25;;
79074;SDS011;68476;42.710;23.388;2023-11-22T11:22:32;26.85;;;19.00;;
79074;SDS011;68476;42.710;23.388;2023-11-22T11:25:04;28.17;;;18.17;;
79074;SDS011;68476;42.710;23.388;2023-11-22T11:27:32;29.70;;;19.77;;
79074;SDS011;68476;42.710;23.388;2023-11-22T11:29:58;30.77;;;19.38;;
79074;SDS011;68476;42.710;23.388;2023-11-22T11:32:30;29.90;;;20.85;;
79074;SDS011;68476;42.710;23.388;2023-11-22T11:35:00;27.55;;;18.60;;
79074;SDS011;68476;42.710;23.388;2023-11-22T11:37:29;27.20;;;18.02;;
79074;SDS011;68476;42.710;23.388;2023-11-22T11:39:54;26.90;;;16.63;;
79074;SDS011;68476;42.710;23.388;2023-11-22T11:42:19;20.60;;;15.32;;
79074;SDS011;68476;42.710;23.388;2023-11-22T11:45:18;22.23;;;15.02;;
79074;SDS011;68476;42.710;23.388;2023-11-22T11:47:36;22.75;;;15.80;;
79074;SDS011;68476;42.710;23.388;2023-11-22T11:50:02;24.85;;;16.00;;
79074;SDS011;68476;42.710;23.388;2023-11-22T11:52:27;23.70;;;15.55;;
79074;SDS011;68476;42.710;23.388;2023-11-22T11:54:55;22.80;;;17.88;;
79074;SDS011;68476;42.710;23.388;2023-11-22T11:57:22;24.88;;;16.92;;
79074;SDS011;68476;42.710;23.388;2023-11-22T11:59:48;21.95;;;15.75;;
79074;SDS011;68476;42.710;23.388;2023-11-22T12:02:14;21.73;;;15.15;;
79074;SDS011;68476;42.710;23.388;2023-11-22T12:04:41;22.00;;;15.77;;
79074;SDS011;68476;42.710;23.388;2023-11-22T12:07:10;23.95;;;15.77;;
79074;SDS011;68476;42.710;23.388;2023-11-22T12:09:37;20.15;;;14.27;;
79074;SDS011;68476;42.710;23.388;2023-11-22T12:12:02;20.55;;;14.40;;
79074;SDS011;68476;42.710;23.388;2023-11-22T12:14:28;20.05;;;14.10;;
79074;SDS011;68476;42.710;23.388;2023-11-22T12:16:53;21.38;;;14.07;;
79074;SDS011;68476;42.710;23.388;2023-11-22T12:19:27;23.40;;;14.00;;
79074;SDS011;68476;42.710;23.388;2023-11-22T12:21:53;20.83;;;13.95;;
79074;SDS011;68476;42.710;23.388;2023-11-22T12:24:18;20.23;;;13.93;;
79074;SDS011;68476;42.710;23.388;2023-11-22T12:26:45;21.00;;;14.60;;
79074;SDS011;68476;42.710;23.388;2023-11-22T12:29:11;20.10;;;14.65;;
79074;SDS011;68476;42.710;23.388;2023-11-22T12:31:43;21.08;;;14.32;;
79074;SDS011;68476;42.710;23.388;2023-11-22T12:34:09;21.83;;;13.48;;
79074;SDS011;68476;42.710;23.388;2023-11-22T12:36:34;21.73;;;14.32;;
79074;SDS011;68476;42.710;23.388;2023-11-22T12:39:01;16.98;;;13.10;;
79074;SDS011;68476;42.710;23.388;2023-11-22T12:41:28;18.63;;;12.82;;
79074;SDS011;68476;42.710;23.388;2023-11-22T12:44:01;17.15;;;12.60;;
79074;SDS011;68476;42.710;23.388;2023-11-22T12:46:27;17.73;;;12.60;;
79074;SDS011;68476;42.710;23.388;2023-11-22T12:49:04;17.80;;;12.95;;
79074;SDS011;68476;42.710;23.388;2023-11-22T12:51:30;18.67;;;12.48;;
79074;SDS011;68476;42.710;23.388;2023-11-22T12:53:55;20.88;;;14.75;;
79074;SDS011;68476;42.710;23.388;2023-11-22T12:56:21;18.20;;;12.43;;
79074;SDS011;68476;42.710;23.388;2023-11-22T12:58:47;18.80;;;13.07;;
79074;SDS011;68476;42.710;23.388;2023-11-22T13:01:13;16.70;;;12.02;;
79074;SDS011;68476;42.710;23.388;2023-11-22T13:03:38;18.27;;;13.23;;
79074;SDS011;68476;42.710;23.388;2023-11-22T13:06:03;16.83;;;13.05;;
79074;SDS011;68476;42.710;23.388;2023-11-22T13:08:29;16.77;;;11.52;;
79074;SDS011;68476;42.710;23.388;2023-11-22T13:10:54;16.25;;;11.65;;
79074;SDS011;68476;42.710;23.388;2023-11-22T13:13:22;16.95;;;11.95;;
79074;SDS011;68476;42.710;23.388;2023-11-22T13:15:48;18.25;;;12.18;;
79074;SDS011;68476;42.710;23.388;2023-11-22T13:18:17;15.05;;;11.43;;
79074;SDS011;68476;42.710;23.388;2023-11-22T13:20:43;17.45;;;12.70;;
79074;SDS011;68476;42.710;23.388;2023-11-22T13:23:09;19.58;;;13.88;;
79074;SDS011;68476;42.710;23.388;2023-11-22T13:25:34;19.70;;;15.23;;
79074;SDS011;68476;42.710;23.388;2023-11-22T13:27:59;19.25;;;13.68;;
79074;SDS011;68476;42.710;23.388;2023-11-22T13:30:25;18.17;;;12.32;;
79074;SDS011;68476;42.710;23.388;2023-11-22T13:32:50;17.48;;;12.95;;
79074;SDS011;68476;42.710;23.388;2023-11-22T13:35:16;20.88;;;14.02;;
79074;SDS011;68476;42.710;23.388;2023-11-22T13:37:42;19.23;;;12.13;;
79074;SDS011;68476;42.710;23.388;2023-11-22T13:40:09;18.45;;;12.38;;
79074;SDS011;68476;42.710;23.388;2023-11-22T13:42:39;15.27;;;10.35;;
79074;SDS011;68476;42.710;23.388;2023-11-22T13:45:05;16.40;;;10.98;;
79074;SDS011;68476;42.710;23.388;2023-11-22T13:47:30;15.07;;;9.73;;
79074;SDS011;68476;42.710;23.388;2023-11-22T13:49:58;14.07;;;9.60;;
79074;SDS011;68476;42.710;23.388;2023-11-22T13:52:23;12.93;;;9.27;;
79074;SDS011;68476;42.710;23.388;2023-11-22T13:54:49;13.38;;;10.15;;
79074;SDS011;68476;42.710;23.388;2023-11-22T13:57:16;14.43;;;10.40;;
79074;SDS011;68476;42.710;23.388;2023-11-22T13:59:41;15.00;;;11.07;;
79074;SDS011;68476;42.710;23.388;2023-11-22T14:02:07;16.08;;;10.38;;
79074;SDS011;68476;42.710;23.388;2023-11-22T14:04:33;15.85;;;10.52;;
79074;SDS011;68476;42.710;23.388;2023-11-22T14:06:59;16.58;;;10.30;;
79074;SDS011;68476;42.710;23.388;2023-11-22T14:09:25;19.98;;;13.75;;